Time;durP1;ratioP1;P1;durP2;ratioP2;P2;SDS_P1;SDS_P2;PMS_P1;PMS_P2;Temp;Humidity;BMP_temperature;BMP_pressure;BME280_temperature;BME280_humidity;BME280_pressure;Samples;Min_cycle;Max_cycle;Signal;HPM_P1;HPM_P2
2022/10/24 00:01:11;;;;;;;5.47;2.60;;;18.70;86.30;;;-142.21;100.00;112049.66;5071486;28;20211;-69
2022/10/24 00:03:39;;;;;;;5.97;2.77;;;18.70;86.30;;;-142.21;100.00;112049.66;5072445;28;20685;-66
2022/10/24 00:06:08;;;;;;;5.43;2.63;;;18.60;86.10;;;-142.21;100.00;112049.66;5072474;28;20456;-66
2022/10/24 00:08:37;;;;;;;3.30;2.73;;;18.60;86.70;;;-142.21;100.00;112049.66;5073868;28;20205;-66
2022/10/24 00:11:10;;;;;;;5.03;3.40;;;18.50;86.40;;;-142.21;100.00;112049.66;5072440;28;20470;-67
2022/10/24 00:13:37;;;;;;;5.63;3.00;;;18.50;86.60;;;-142.21;100.00;112049.66;5072846;28;20482;-67
2022/10/24 00:16:05;;;;;;;4.07;2.83;;;18.50;86.60;;;-142.21;100.00;112049.66;5072709;28;20530;-67
2022/10/24 00:18:34;;;;;;;5.40;3.43;;;18.50;86.50;;;-142.21;100.00;112049.66;5073153;28;20599;-67
2022/10/24 00:21:05;;;;;;;8.00;2.93;;;18.50;86.10;;;-142.21;100.00;112049.66;5073013;28;20522;-68
2022/10/24 00:23:32;;;;;;;6.70;3.10;;;18.50;85.80;;;-142.21;100.00;112049.66;5072773;28;20991;-67
2022/10/24 00:26:00;;;;;;;8.63;3.17;;;18.50;85.50;;;-142.21;100.00;112049.66;5072733;28;20475;-68
2022/10/24 00:28:28;;;;;;;5.00;2.83;;;18.50;85.60;;;-142.21;100.00;112049.66;5072283;28;20450;-67
2022/10/24 00:30:55;;;;;;;7.67;3.27;;;18.50;85.60;;;-142.21;100.00;112049.66;5069275;28;20538;-67
2022/10/24 00:33:22;;;;;;;6.43;2.87;;;18.50;85.40;;;-142.21;100.00;112049.66;5067837;28;20471;-66
2022/10/24 00:35:50;;;;;;;4.83;2.97;;;18.40;85.30;;;-142.21;100.00;112049.66;5072748;28;20550;-66
2022/10/24 00:38:18;;;;;;;6.47;2.80;;;18.50;85.60;;;-142.21;100.00;112049.66;5072484;28;20292;-68
2022/10/24 00:40:45;;;;;;;4.63;3.07;;;18.50;85.50;;;-142.21;100.00;112049.66;5072780;28;20534;-67
2022/10/24 00:43:19;;;;;;;6.50;3.07;;;18.50;85.60;;;-142.21;100.00;112049.66;5071916;28;20566;-68
2022/10/24 00:45:50;;;;;;;6.47;3.00;;;18.50;85.60;;;-142.21;100.00;112049.66;5068788;28;20626;-67
2022/10/24 00:48:26;;;;;;;6.43;2.70;;;18.40;85.60;;;-142.21;100.00;112049.66;5081505;28;20470;-66
2022/10/24 00:51:01;;;;;;;5.03;3.10;;;18.40;85.60;;;-142.21;100.00;112049.66;5082891;28;20439;-67
2022/10/24 00:53:33;;;;;;;7.90;2.97;;;18.40;86.30;;;-142.21;100.00;112049.66;5072131;28;20982;-66
2022/10/24 00:56:06;;;;;;;4.23;2.53;;;18.30;85.40;;;-142.21;100.00;112049.66;5073228;28;20482;-66
2022/10/24 00:58:37;;;;;;;3.97;2.67;;;18.30;85.50;;;-142.21;100.00;112049.66;5072278;28;20444;-67
2022/10/24 01:01:05;;;;;;;4.13;3.10;;;18.30;85.50;;;-142.21;100.00;112049.66;5072408;28;20527;-68
2022/10/24 01:03:33;;;;;;;5.67;3.00;;;18.30;85.20;;;-142.21;100.00;112049.66;5071668;28;20816;-67
2022/10/24 01:06:31;;;;;;;4.87;2.73;;;18.20;85.50;;;-142.21;100.00;112049.66;5072127;28;20193;-67
2022/10/24 01:09:15;;;;;;;4.17;3.00;;;18.20;85.90;;;-142.21;100.00;112049.66;5071750;28;20436;-66
2022/10/24 01:11:59;;;;;;;3.97;2.43;;;18.10;86.20;;;-142.21;100.00;112049.66;5061690;28;20435;-67
2022/10/24 01:14:42;;;;;;;4.77;2.50;;;18.00;86.00;;;-142.21;100.00;112049.66;5067261;28;20523;-67
2022/10/24 01:17:18;;;;;;;4.80;2.60;;;18.10;85.40;;;-142.21;100.00;112049.66;5071323;28;20431;-68
2022/10/24 01:20:29;;;;;;;6.47;2.27;;;18.10;85.20;;;-142.21;100.00;112049.66;5072147;28;20530;-67
2022/10/24 01:23:39;;;;;;;4.53;2.30;;;18.10;85.10;;;-142.21;100.00;112049.66;5061769;28;20514;-66
2022/10/24 01:26:36;;;;;;;4.57;2.20;;;18.10;84.90;;;-142.21;100.00;112049.66;5062540;28;20529;-66
2022/10/24 01:29:15;;;;;;;4.00;2.30;;;18.00;84.80;;;-142.21;100.00;112049.66;5015798;28;20452;-68
2022/10/24 01:31:51;;;;;;;7.27;2.50;;;18.00;85.00;;;-142.21;100.00;112049.66;5071480;28;20447;-66
2022/10/24 01:34:27;;;;;;;3.93;2.40;;;18.00;84.80;;;-142.21;100.00;112049.66;5071324;28;20458;-66
2022/10/24 01:37:03;;;;;;;8.37;2.90;;;18.00;84.90;;;-142.21;100.00;112049.66;5064197;28;20439;-66
2022/10/24 01:39:39;;;;;;;5.33;2.37;;;17.90;85.00;;;-142.21;100.00;112049.66;5069016;28;20522;-67
2022/10/24 01:42:10;;;;;;;4.67;2.60;;;17.90;85.10;;;-142.21;100.00;112049.66;5071535;28;20955;-67
2022/10/24 01:44:43;;;;;;;4.93;2.67;;;18.00;84.90;;;-142.21;100.00;112049.66;5071722;28;20509;-68
2022/10/24 01:47:19;;;;;;;3.33;2.47;;;17.90;85.00;;;-142.21;100.00;112049.66;5070524;28;20436;-67
2022/10/24 01:49:55;;;;;;;4.80;2.57;;;17.90;85.00;;;-142.21;100.00;112049.66;5071575;28;20798;-66
2022/10/24 01:52:26;;;;;;;5.37;2.67;;;17.90;85.10;;;-142.21;100.00;112049.66;5071012;28;20497;-66
2022/10/24 01:54:54;;;;;;;3.43;2.13;;;17.90;85.00;;;-142.21;100.00;112049.66;5071719;28;20459;-66
2022/10/24 01:57:27;;;;;;;5.83;2.50;;;17.90;85.30;;;-142.21;100.00;112049.66;5070602;28;20951;-65
2022/10/24 01:59:55;;;;;;;5.87;2.63;;;17.90;85.30;;;-142.21;100.00;112049.66;5071371;28;20443;-65
2022/10/24 02:02:33;;;;;;;3.53;2.50;;;17.90;85.20;;;-142.21;100.00;112049.66;5070895;28;20852;-65
2022/10/24 02:05:07;;;;;;;5.93;2.80;;;17.90;85.60;;;-142.21;100.00;112049.66;5071746;28;20538;-67
2022/10/24 02:07:38;;;;;;;4.57;2.20;;;17.80;85.70;;;-142.21;100.00;112049.66;5071404;28;20489;-67
2022/10/24 02:10:11;;;;;;;4.23;2.20;;;17.80;85.70;;;-142.21;100.00;112049.66;5071625;28;20443;-66
2022/10/24 02:12:46;;;;;;;4.50;2.50;;;17.80;85.90;;;-142.21;100.00;112049.66;5071355;28;20478;-67
2022/10/24 02:15:22;;;;;;;4.27;2.53;;;17.80;86.00;;;-142.21;100.00;112049.66;5071628;28;20522;-65
2022/10/24 02:17:52;;;;;;;3.67;2.40;;;17.80;85.90;;;-142.21;100.00;112049.66;5075129;28;20457;-66
2022/10/24 02:20:27;;;;;;;6.60;2.80;;;17.80;85.70;;;-142.21;100.00;112049.66;5074051;28;21019;-67
2022/10/24 02:23:02;;;;;;;3.47;2.37;;;17.80;85.60;;;-142.21;100.00;112049.66;5075155;28;20797;-66
2022/10/24 02:25:36;;;;;;;6.83;2.23;;;17.80;85.60;;;-142.21;100.00;112049.66;5074466;28;20560;-67
2022/10/24 02:28:10;;;;;;;6.30;2.50;;;17.80;85.50;;;-142.21;100.00;112049.66;5075297;28;20484;-67
2022/10/24 02:30:46;;;;;;;5.13;2.43;;;17.80;85.60;;;-142.21;100.00;112049.66;5074525;28;20521;-68
2022/10/24 02:33:17;;;;;;;3.17;2.53;;;17.80;85.60;;;-142.21;100.00;112049.66;5074480;28;20474;-67
2022/10/24 02:35:48;;;;;;;5.47;2.50;;;17.80;85.50;;;-142.21;100.00;112049.66;5074758;28;20534;-66
2022/10/24 02:38:22;;;;;;;12.03;2.40;;;17.80;85.50;;;-142.21;100.00;112049.66;5074374;28;20468;-67
2022/10/24 02:40:52;;;;;;;6.03;2.30;;;17.80;85.40;;;-142.21;100.00;112049.66;5074792;28;20438;-68
2022/10/24 02:43:22;;;;;;;4.17;2.30;;;17.80;85.40;;;-142.21;100.00;112049.66;5073588;28;21074;-68
2022/10/24 02:45:53;;;;;;;3.47;2.33;;;17.80;85.30;;;-142.21;100.00;112049.66;5075200;28;20531;-66
2022/10/24 02:48:28;;;;;;;6.43;2.63;;;17.80;85.30;;;-142.21;100.00;112049.66;5073706;28;20447;-67
2022/10/24 02:50:55;;;;;;;3.77;2.20;;;17.80;85.20;;;-142.21;100.00;112049.66;5075011;28;20435;-66
2022/10/24 02:53:25;;;;;;;5.47;2.80;;;17.80;85.10;;;-142.21;100.00;112049.66;5074334;28;20528;-67
2022/10/24 02:55:53;;;;;;;10.37;2.90;;;17.80;85.10;;;-142.21;100.00;112049.66;5075011;28;20526;-67
2022/10/24 02:58:20;;;;;;;5.93;2.53;;;17.80;85.10;;;-142.21;100.00;112049.66;5071600;28;20435;-66
2022/10/24 03:00:47;;;;;;;7.87;2.53;;;17.80;85.10;;;-142.21;100.00;112049.66;5059705;28;20448;-66
2022/10/24 03:03:14;;;;;;;8.73;2.60;;;17.80;85.30;;;-142.21;100.00;112049.66;5073744;28;20485;-66
2022/10/24 03:05:43;;;;;;;11.33;3.10;;;17.70;85.20;;;-142.21;100.00;112049.66;5074763;28;20457;-67
2022/10/24 03:08:12;;;;;;;5.30;2.97;;;17.70;85.20;;;-142.21;100.00;112049.66;5074977;28;20538;-67
2022/10/24 03:10:39;;;;;;;7.00;2.90;;;17.70;85.50;;;-142.21;100.00;112049.66;5056114;28;20495;-66
2022/10/24 03:13:06;;;;;;;6.13;2.73;;;17.70;85.60;;;-142.21;100.00;112049.66;5073964;28;20435;-66
2022/10/24 03:15:33;;;;;;;5.17;2.87;;;17.70;85.60;;;-142.21;100.00;112049.66;5070905;28;20848;-66
2022/10/24 03:18:01;;;;;;;9.10;2.80;;;17.80;85.90;;;-142.21;100.00;112049.66;5074579;28;20449;-66
2022/10/24 03:20:28;;;;;;;9.67;2.97;;;17.70;85.70;;;-142.21;100.00;112049.66;5073730;28;20526;-67
2022/10/24 03:22:56;;;;;;;10.30;2.80;;;17.70;85.80;;;-142.21;100.00;112049.66;5074271;28;20447;-66
2022/10/24 03:25:23;;;;;;;7.83;3.20;;;17.70;85.90;;;-142.21;100.00;112049.66;5073576;28;20892;-68
2022/10/24 03:27:51;;;;;;;8.20;2.90;;;17.70;85.80;;;-142.21;100.00;112049.66;5072555;28;20439;-67
2022/10/24 03:30:18;;;;;;;5.67;3.30;;;17.80;86.00;;;-142.21;100.00;112049.66;5073658;28;20197;-67
2022/10/24 03:32:45;;;;;;;4.80;3.00;;;17.70;86.10;;;-142.21;100.00;112049.66;5072913;28;20444;-69
2022/10/24 03:35:12;;;;;;;8.47;3.00;;;17.80;86.30;;;-142.21;100.00;112049.66;5073676;28;20444;-67
2022/10/24 03:37:39;;;;;;;5.67;3.07;;;17.70;86.90;;;-142.21;100.00;112049.66;5074004;28;20451;-67
2022/10/24 03:40:10;;;;;;;4.00;2.70;;;17.70;87.30;;;-142.21;100.00;112049.66;5073388;28;20475;-67
2022/10/24 03:42:38;;;;;;;7.37;3.20;;;17.70;87.40;;;-142.21;100.00;112049.66;5073617;28;20436;-67
2022/10/24 03:45:07;;;;;;;5.03;3.20;;;17.70;87.30;;;-142.21;100.00;112049.66;5074221;28;20586;-67
2022/10/24 03:47:34;;;;;;;8.33;3.73;;;17.70;87.30;;;-142.21;100.00;112049.66;5072925;28;20444;-68
2022/10/24 03:50:01;;;;;;;11.07;3.00;;;17.70;87.20;;;-142.21;100.00;112049.66;5069092;28;20527;-66
2022/10/24 03:52:28;;;;;;;8.57;2.93;;;17.80;87.20;;;-142.21;100.00;112049.66;5072805;28;20479;-66
2022/10/24 03:54:55;;;;;;;7.50;3.10;;;17.80;87.10;;;-142.21;100.00;112049.66;5072786;28;20546;-66
2022/10/24 03:57:24;;;;;;;5.30;2.93;;;17.80;87.00;;;-142.21;100.00;112049.66;5072816;28;20478;-67
2022/10/24 03:59:51;;;;;;;9.57;3.10;;;17.90;87.10;;;-142.21;100.00;112049.66;5073693;28;20534;-67
2022/10/24 04:02:18;;;;;;;8.77;3.73;;;17.80;86.90;;;-142.21;100.00;112049.66;5072689;28;20443;-66
2022/10/24 04:04:45;;;;;;;5.67;3.10;;;17.80;86.80;;;-142.21;100.00;112049.66;5073162;28;20579;-67
2022/10/24 04:07:12;;;;;;;8.43;3.20;;;17.80;86.70;;;-142.21;100.00;112049.66;5072928;28;20439;-67
2022/10/24 04:09:41;;;;;;;4.53;2.67;;;17.80;86.90;;;-142.21;100.00;112049.66;5073045;28;20542;-68
2022/10/24 04:12:08;;;;;;;7.10;3.17;;;17.80;86.90;;;-142.21;100.00;112049.66;5073664;28;20443;-67
2022/10/24 04:14:40;;;;;;;6.43;3.07;;;17.80;87.10;;;-142.21;100.00;112049.66;5073056;28;20467;-66
2022/10/24 04:17:07;;;;;;;5.73;2.83;;;17.80;87.10;;;-142.21;100.00;112049.66;5072176;28;20435;-66
2022/10/24 04:19:34;;;;;;;13.63;3.77;;;17.80;87.00;;;-142.21;100.00;112049.66;5072486;28;20452;-67
2022/10/24 04:22:01;;;;;;;7.30;3.13;;;17.80;86.90;;;-142.21;100.00;112049.66;5072907;28;20439;-67
2022/10/24 04:24:29;;;;;;;6.60;3.00;;;17.80;87.00;;;-142.21;100.00;112049.66;5071606;28;21334;-66
2022/10/24 04:26:56;;;;;;;4.37;2.93;;;17.80;86.90;;;-142.21;100.00;112049.66;5072878;28;20526;-67
2022/10/24 04:29:23;;;;;;;5.17;3.10;;;17.80;87.10;;;-142.21;100.00;112049.66;5072657;28;20505;-67
2022/10/24 04:31:52;;;;;;;7.23;3.20;;;17.90;87.20;;;-142.21;100.00;112049.66;5072829;28;21003;-67
2022/10/24 04:34:21;;;;;;;8.77;3.53;;;17.90;87.30;;;-142.21;100.00;112049.66;5071867;28;20478;-67
2022/10/24 04:36:50;;;;;;;4.53;2.83;;;17.90;87.40;;;-142.21;100.00;112049.66;5072413;28;20540;-66
2022/10/24 04:39:18;;;;;;;7.27;3.00;;;17.90;87.50;;;-142.21;100.00;112049.66;5071318;28;20501;-67
2022/10/24 04:41:46;;;;;;;7.40;3.40;;;17.90;87.40;;;-142.21;100.00;112049.66;5072760;28;20501;-66
2022/10/24 04:44:13;;;;;;;5.50;3.00;;;17.90;87.30;;;-142.21;100.00;112049.66;5072859;28;20792;-67
2022/10/24 04:46:40;;;;;;;7.07;3.10;;;17.90;87.30;;;-142.21;100.00;112049.66;5071764;28;20490;-66
2022/10/24 04:49:08;;;;;;;6.57;3.07;;;17.80;87.80;;;-142.21;100.00;112049.66;5072444;28;20444;-67
2022/10/24 04:51:36;;;;;;;5.83;2.83;;;17.70;88.20;;;-142.21;100.00;112049.66;5072042;28;20731;-67
2022/10/24 04:54:03;;;;;;;7.40;3.03;;;17.80;88.30;;;-142.21;100.00;112049.66;5072122;28;20481;-67
2022/10/24 04:56:30;;;;;;;8.33;3.50;;;17.70;88.80;;;-142.21;100.00;112049.66;5071452;28;20490;-67
2022/10/24 04:58:58;;;;;;;7.97;3.77;;;17.70;89.00;;;-142.21;100.00;112049.66;5072436;28;20515;-66
2022/10/24 05:01:25;;;;;;;7.33;3.40;;;17.80;89.10;;;-142.21;100.00;112049.66;5070603;28;21011;-68
2022/10/24 05:03:52;;;;;;;6.70;3.30;;;17.80;88.90;;;-142.21;100.00;112049.66;5073210;28;20479;-67
2022/10/24 05:06:20;;;;;;;8.40;3.23;;;17.80;89.60;;;-142.21;100.00;112049.66;5073005;28;20487;-67
2022/10/24 05:08:47;;;;;;;5.80;2.87;;;17.70;89.20;;;-142.21;100.00;112049.66;5074586;28;20471;-67
2022/10/24 05:11:14;;;;;;;6.67;3.50;;;17.60;89.40;;;-142.21;100.00;112049.66;5050544;28;20526;-67
2022/10/24 05:13:42;;;;;;;8.87;3.00;;;17.60;89.80;;;-142.21;100.00;112049.66;5076478;28;20497;-67
2022/10/24 05:16:09;;;;;;;12.07;3.63;;;17.60;90.00;;;-142.21;100.00;112049.66;5073004;28;20443;-67
2022/10/24 05:18:36;;;;;;;8.33;3.27;;;17.60;89.80;;;-142.21;100.00;112049.66;5072264;28;20534;-66
2022/10/24 05:21:03;;;;;;;4.50;2.97;;;17.70;89.60;;;-142.21;100.00;112049.66;5071479;28;20535;-67
2022/10/24 05:23:32;;;;;;;6.90;3.63;;;17.80;89.20;;;-142.21;100.00;112049.66;5070765;28;20450;-67
2022/10/24 05:25:59;;;;;;;8.20;3.10;;;17.90;89.00;;;-142.21;100.00;112049.66;5071910;28;20467;-66
2022/10/24 05:28:27;;;;;;;6.07;2.93;;;18.00;88.90;;;-142.21;100.00;112049.66;5071396;28;20483;-67
2022/10/24 05:30:54;;;;;;;6.00;3.23;;;18.00;88.50;;;-142.21;100.00;112049.66;5071955;28;20848;-65
2022/10/24 05:33:22;;;;;;;5.93;3.50;;;18.10;88.50;;;-142.21;100.00;112049.66;5071442;28;20478;-66
2022/10/24 05:35:50;;;;;;;7.53;3.67;;;18.10;89.10;;;-142.21;100.00;112049.66;5071172;28;20451;-66
2022/10/24 05:38:17;;;;;;;6.63;3.30;;;18.10;88.10;;;-142.21;100.00;112049.66;5079229;28;20537;-66
2022/10/24 05:40:48;;;;;;;7.47;3.37;;;18.20;88.40;;;-142.21;100.00;112049.66;5080539;28;20211;-72
2022/10/24 05:43:16;;;;;;;8.23;3.67;;;18.20;88.20;;;-142.21;100.00;112049.66;5081002;28;20504;-66
2022/10/24 05:45:43;;;;;;;9.23;3.53;;;18.20;88.30;;;-142.21;100.00;112049.66;5076633;28;20511;-66
2022/10/24 05:48:10;;;;;;;9.33;3.70;;;18.30;88.10;;;-142.21;100.00;112049.66;5071672;28;20530;-66
2022/10/24 05:50:37;;;;;;;13.60;4.40;;;18.30;88.00;;;-142.21;100.00;112049.66;5070225;28;20534;-68
2022/10/24 05:53:04;;;;;;;8.00;3.60;;;18.30;88.00;;;-142.21;100.00;112049.66;5071991;28;20499;-66
2022/10/24 05:55:33;;;;;;;8.03;3.17;;;18.30;88.00;;;-142.21;100.00;112049.66;5070950;28;20522;-67
2022/10/24 05:58:02;;;;;;;6.93;3.50;;;18.30;88.00;;;-142.21;100.00;112049.66;5071435;28;20486;-67
2022/10/24 06:00:29;;;;;;;5.57;3.07;;;18.40;88.20;;;-142.21;100.00;112049.66;5069662;28;20486;-67
2022/10/24 06:02:56;;;;;;;8.20;3.27;;;18.30;88.10;;;-142.21;100.00;112049.66;5071574;28;20445;-68
2022/10/24 06:05:24;;;;;;;8.13;3.40;;;18.30;88.00;;;-142.21;100.00;112049.66;5070915;28;20574;-67
2022/10/24 06:07:51;;;;;;;8.57;3.33;;;18.30;88.00;;;-142.21;100.00;112049.66;5071031;28;20444;-68
2022/10/24 06:10:18;;;;;;;6.40;3.63;;;18.30;88.00;;;-142.21;100.00;112049.66;5067119;28;20476;-69
2022/10/24 06:12:46;;;;;;;9.33;3.60;;;18.30;88.00;;;-142.21;100.00;112049.66;5066602;28;20522;-68
2022/10/24 06:15:33;;;;;;;7.77;4.03;;;18.30;88.30;;;-142.21;100.00;112049.66;5071566;28;20457;-68
2022/10/24 06:18:02;;;;;;;11.30;3.33;;;18.30;88.40;;;-142.21;100.00;112049.66;5070250;28;20197;-68
2022/10/24 06:20:29;;;;;;;8.03;3.83;;;18.30;88.30;;;-142.21;100.00;112049.66;5070441;28;20447;-69
2022/10/24 06:22:57;;;;;;;4.60;2.90;;;18.30;88.40;;;-142.21;100.00;112049.66;5051859;28;20513;-73
2022/10/24 06:25:24;;;;;;;7.90;3.40;;;18.30;88.60;;;-142.21;100.00;112049.66;5054180;28;20527;-71
2022/10/24 06:27:52;;;;;;;7.70;3.90;;;18.30;88.50;;;-142.21;100.00;112049.66;5060719;28;20534;-72
2022/10/24 06:30:20;;;;;;;8.13;3.40;;;18.30;88.60;;;-142.21;100.00;112049.66;5069955;28;20447;-72
2022/10/24 06:32:48;;;;;;;8.33;4.00;;;18.30;88.70;;;-142.21;100.00;112049.66;5071538;28;20479;-72
2022/10/24 06:35:15;;;;;;;8.87;3.70;;;18.30;88.90;;;-142.21;100.00;112049.66;5069960;28;21018;-72
2022/10/24 06:37:43;;;;;;;8.47;3.67;;;18.30;88.90;;;-142.21;100.00;112049.66;5070141;28;20490;-70
2022/10/24 06:40:11;;;;;;;4.87;3.67;;;18.30;89.20;;;-142.21;100.00;112049.66;5071498;28;20778;-69
2022/10/24 06:42:38;;;;;;;7.87;3.90;;;18.30;89.30;;;-142.21;100.00;112049.66;5071131;28;20467;-73
2022/10/24 06:45:08;;;;;;;10.67;4.10;;;18.30;89.40;;;-142.21;100.00;112049.66;5036279;28;20487;-70
2022/10/24 06:47:37;;;;;;;10.90;3.73;;;18.20;89.60;;;-142.21;100.00;112049.66;5070966;28;20500;-71
2022/10/24 06:50:06;;;;;;;7.70;3.83;;;18.30;89.50;;;-142.21;100.00;112049.66;5070238;28;20443;-70
2022/10/24 06:52:36;;;;;;;9.97;3.70;;;18.30;89.90;;;-142.21;100.00;112049.66;5071195;28;20475;-70
2022/10/24 06:55:04;;;;;;;11.37;4.20;;;18.40;89.80;;;-142.21;100.00;112049.66;5070513;28;20466;-70
2022/10/24 06:57:32;;;;;;;7.50;3.37;;;18.50;89.60;;;-142.21;100.00;112049.66;5050953;28;21004;-71
2022/10/24 06:59:59;;;;;;;7.63;3.53;;;18.50;89.20;;;-142.21;100.00;112049.66;5058200;28;20471;-71
2022/10/24 07:02:27;;;;;;;8.77;3.53;;;18.60;88.90;;;-142.21;100.00;112049.66;5072293;28;20443;-70
2022/10/24 07:04:57;;;;;;;8.30;3.33;;;18.60;88.50;;;-142.21;100.00;112049.66;5069308;28;20956;-69
2022/10/24 07:07:25;;;;;;;10.30;3.40;;;18.70;88.50;;;-142.21;100.00;112049.66;5059924;28;20194;-72
2022/10/24 07:09:55;;;;;;;10.33;4.30;;;18.70;88.50;;;-142.21;100.00;112049.66;5072535;28;20212;-70
2022/10/24 07:12:23;;;;;;;9.97;3.40;;;18.70;88.30;;;-142.21;100.00;112049.66;5054908;28;20523;-69
2022/10/24 07:14:50;;;;;;;8.53;3.37;;;18.80;88.20;;;-142.21;100.00;112049.66;5054734;28;20440;-70
2022/10/24 07:17:19;;;;;;;7.57;3.10;;;18.80;88.10;;;-142.21;100.00;112049.66;5068886;28;20214;-70
2022/10/24 07:19:56;;;;;;;9.47;3.53;;;18.80;88.00;;;-142.21;100.00;112049.66;5073906;28;20451;-70
2022/10/24 07:22:24;;;;;;;7.60;3.20;;;18.90;87.70;;;-142.21;100.00;112049.66;5074361;28;20428;-71
2022/10/24 07:24:54;;;;;;;6.13;3.20;;;18.90;87.50;;;-142.21;100.00;112049.66;5074191;28;20578;-70
2022/10/24 07:27:21;;;;;;;8.40;3.30;;;19.00;87.60;;;-142.21;100.00;112049.66;5074428;28;20621;-71
2022/10/24 07:29:50;;;;;;;7.80;3.47;;;19.00;87.70;;;-142.21;100.00;112049.66;5073548;28;20197;-70
2022/10/24 07:32:18;;;;;;;6.23;3.00;;;19.00;87.60;;;-142.21;100.00;112049.66;5073871;28;20293;-69
2022/10/24 07:34:46;;;;;;;9.10;3.20;;;19.00;87.60;;;-142.21;100.00;112049.66;5073109;28;20203;-69
2022/10/24 07:37:15;;;;;;;7.43;3.50;;;19.10;87.60;;;-142.21;100.00;112049.66;5074218;28;20447;-70
2022/10/24 07:39:45;;;;;;;8.57;3.73;;;19.10;87.40;;;-142.21;100.00;112049.66;5073552;28;20201;-70
2022/10/24 07:42:14;;;;;;;7.33;3.33;;;19.10;87.30;;;-142.21;100.00;112049.66;5072342;28;20471;-71
2022/10/24 07:44:41;;;;;;;6.17;3.20;;;19.10;87.50;;;-142.21;100.00;112049.66;5070609;28;20305;-70
2022/10/24 07:47:08;;;;;;;8.43;3.40;;;19.10;87.80;;;-142.21;100.00;112049.66;5062933;28;20205;-70
2022/10/24 07:49:36;;;;;;;4.77;3.30;;;19.10;88.20;;;-142.21;100.00;112049.66;5073416;28;20447;-70
2022/10/24 07:52:05;;;;;;;7.60;3.30;;;19.10;88.20;;;-142.21;100.00;112049.66;5073997;28;20247;-71
2022/10/24 07:54:34;;;;;;;5.70;3.70;;;19.10;88.30;;;-142.21;100.00;112049.66;5073102;28;20308;-70
2022/10/24 07:57:01;;;;;;;8.17;3.27;;;19.20;88.40;;;-142.21;100.00;112049.66;5073194;28;20534;-69
2022/10/24 07:59:32;;;;;;;8.57;3.53;;;19.20;88.60;;;-142.21;100.00;112049.66;5072955;28;20482;-69
2022/10/24 08:01:59;;;;;;;7.40;3.40;;;19.20;88.80;;;-142.21;100.00;112049.66;5073112;28;20717;-69
2022/10/24 08:04:27;;;;;;;10.40;4.23;;;19.20;89.20;;;-142.21;100.00;112049.66;5073155;28;20292;-71
2022/10/24 08:06:55;;;;;;;9.07;5.60;;;19.20;89.40;;;-142.21;100.00;112049.66;5073611;28;20605;-69
2022/10/24 08:09:22;;;;;;;10.30;5.47;;;19.20;89.00;;;-142.21;100.00;112049.66;5073211;28;20206;-69
2022/10/24 08:11:50;;;;;;;8.97;4.50;;;19.20;89.10;;;-142.21;100.00;112049.66;5072511;28;20208;-69
2022/10/24 08:14:17;;;;;;;7.73;4.10;;;19.20;89.20;;;-142.21;100.00;112049.66;5073054;28;20209;-70
2022/10/24 08:16:45;;;;;;;8.10;4.23;;;19.30;89.50;;;-142.21;100.00;112049.66;5072458;28;20292;-69
2022/10/24 08:19:13;;;;;;;5.97;3.80;;;19.30;89.40;;;-142.21;100.00;112049.66;5073021;28;20201;-69
2022/10/24 08:21:41;;;;;;;7.53;3.43;;;19.30;89.20;;;-142.21;100.00;112049.66;5072644;28;20707;-69
2022/10/24 08:24:08;;;;;;;6.03;3.10;;;19.40;90.00;;;-142.21;100.00;112049.66;5073084;28;20235;-69
2022/10/24 08:26:39;;;;;;;8.83;3.30;;;19.40;89.20;;;-142.21;100.00;112049.66;5083243;28;20479;-68
2022/10/24 08:29:10;;;;;;;9.60;5.77;;;19.40;89.30;;;-142.21;100.00;112049.66;5083636;28;20444;-70
2022/10/24 08:31:38;;;;;;;9.13;5.43;;;19.50;89.60;;;-142.21;100.00;112049.66;5053601;28;20263;-69
2022/10/24 08:34:05;;;;;;;8.83;4.03;;;19.50;89.50;;;-142.21;100.00;112049.66;5072442;28;20296;-69
2022/10/24 08:36:35;;;;;;;8.20;3.60;;;19.50;89.40;;;-142.21;100.00;112049.66;5070998;28;20877;-69
2022/10/24 08:39:04;;;;;;;5.23;2.90;;;19.50;88.90;;;-142.21;100.00;112049.66;5072437;28;20197;-70
2022/10/24 08:41:38;;;;;;;5.80;2.97;;;19.50;89.00;;;-142.21;100.00;112049.66;5071973;28;20649;-70
2022/10/24 08:44:19;;;;;;;6.00;2.83;;;19.60;89.20;;;-142.21;100.00;112049.66;5072910;28;20284;-69
2022/10/24 08:46:52;;;;;;;7.00;3.20;;;19.60;89.50;;;-142.21;100.00;112049.66;5071769;28;20241;-70
2022/10/24 08:49:38;;;;;;;7.60;3.27;;;19.60;89.50;;;-142.21;100.00;112049.66;5073049;28;20227;-69
2022/10/24 08:52:21;;;;;;;8.90;3.40;;;19.70;90.20;;;-142.21;100.00;112049.66;5072214;28;20197;-69
2022/10/24 08:54:50;;;;;;;8.87;3.20;;;19.70;89.60;;;-142.21;100.00;112049.66;5072199;28;20225;-70
2022/10/24 08:57:26;;;;;;;5.03;3.17;;;19.70;90.00;;;-142.21;100.00;112049.66;5072774;28;20201;-70
2022/10/24 09:00:02;;;;;;;9.60;3.17;;;19.80;89.00;;;-142.21;100.00;112049.66;5071552;28;20193;-71
2022/10/24 09:02:36;;;;;;;4.20;2.97;;;19.80;88.90;;;-142.21;100.00;112049.66;5070751;28;20197;-69
2022/10/24 09:05:21;;;;;;;5.30;2.67;;;19.80;88.40;;;-142.21;100.00;112049.66;5072225;28;20285;-69
2022/10/24 09:07:54;;;;;;;4.73;2.40;;;19.80;88.00;;;-142.21;100.00;112049.66;5071555;28;20208;-69
2022/10/24 09:10:35;;;;;;;6.43;2.50;;;19.80;88.00;;;-142.21;100.00;112049.66;5071933;28;20190;-70
2022/10/24 09:13:02;;;;;;;5.80;2.60;;;19.90;87.90;;;-142.21;100.00;112049.66;5071934;28;20208;-70
2022/10/24 09:15:32;;;;;;;4.27;2.40;;;20.00;87.40;;;-142.21;100.00;112049.66;5071101;28;20201;-70
2022/10/24 09:18:00;;;;;;;3.70;2.37;;;20.10;87.10;;;-142.21;100.00;112049.66;5072306;28;20680;-70
2022/10/24 09:20:32;;;;;;;3.80;2.23;;;20.10;87.20;;;-142.21;100.00;112049.66;5071726;28;20194;-69
2022/10/24 09:23:05;;;;;;;4.90;2.27;;;20.20;86.90;;;-142.21;100.00;112049.66;5072037;28;20703;-70
2022/10/24 09:25:36;;;;;;;3.67;2.37;;;20.20;86.60;;;-142.21;100.00;112049.66;5070487;28;20762;-69
2022/10/24 09:28:06;;;;;;;6.80;2.60;;;20.30;87.20;;;-142.21;100.00;112049.66;5071547;28;20277;-70
2022/10/24 09:30:36;;;;;;;2.97;2.20;;;20.40;86.30;;;-142.21;100.00;112049.66;5071501;28;20196;-69
2022/10/24 09:33:23;;;;;;;5.70;3.07;;;20.40;86.50;;;-142.21;100.00;112049.66;5071562;28;20201;-69
2022/10/24 09:35:54;;;;;;;5.60;2.80;;;20.40;86.20;;;-142.21;100.00;112049.66;5071138;28;20212;-69
2022/10/24 09:38:30;;;;;;;4.83;2.27;;;20.50;86.40;;;-142.21;100.00;112049.66;5072068;28;20283;-70
2022/10/24 09:41:02;;;;;;;5.67;2.50;;;20.50;86.00;;;-142.21;100.00;112049.66;5071540;28;20221;-69
2022/10/24 09:43:39;;;;;;;4.57;2.30;;;20.60;86.20;;;-142.21;100.00;112049.66;5070788;28;20314;-70
2022/10/24 09:46:12;;;;;;;4.00;2.60;;;20.50;86.30;;;-142.21;100.00;112049.66;5072106;28;20291;-70
2022/10/24 09:48:54;;;;;;;5.37;2.63;;;20.50;86.00;;;-142.21;100.00;112049.66;5071658;28;20595;-69
2022/10/24 09:51:28;;;;;;;5.67;2.47;;;20.50;86.30;;;-142.21;100.00;112049.66;5071632;28;20228;-69
2022/10/24 09:54:27;;;;;;;5.27;2.33;;;20.60;86.10;;;-142.21;100.00;112049.66;5071908;28;20279;-71
2022/10/24 09:56:59;;;;;;;3.47;2.37;;;20.70;86.00;;;-142.21;100.00;112049.66;5066541;28;20303;-70
2022/10/24 09:59:43;;;;;;;7.73;2.60;;;20.70;85.90;;;-142.21;100.00;112049.66;5071525;28;20232;-71
2022/10/24 10:02:24;;;;;;;6.00;2.50;;;20.80;85.50;;;-142.21;100.00;112049.66;5071316;28;20197;-69
2022/10/24 10:05:19;;;;;;;5.10;2.20;;;20.80;85.00;;;-142.21;100.00;112049.66;5071259;28;20575;-70
2022/10/24 10:07:49;;;;;;;5.70;2.57;;;20.90;85.40;;;-142.21;100.00;112049.66;5051460;28;20754;-69